sensor_id;sensor_type;location;lat;lon;timestamp;P1;durP1;ratioP1;P2;durP2;ratioP2
16689;SDS011;8458;52.220;9.884;2023-02-01T00:02:12;11.10;;;2.40;;
16689;SDS011;8458;52.220;9.884;2023-02-01T00:04:38;8.30;;;2.20;;
16689;SDS011;8458;52.220;9.884;2023-02-01T00:07:05;8.10;;;2.60;;
16689;SDS011;8458;52.220;9.884;2023-02-01T00:09:33;6.93;;;2.30;;
16689;SDS011;8458;52.220;9.884;2023-02-01T00:11:59;10.83;;;2.77;;
16689;SDS011;8458;52.220;9.884;2023-02-01T00:14:27;9.73;;;2.43;;
16689;SDS011;8458;52.220;9.884;2023-02-01T00:16:54;10.60;;;2.77;;
16689;SDS011;8458;52.220;9.884;2023-02-01T00:19:21;8.90;;;2.60;;
16689;SDS011;8458;52.220;9.884;2023-02-01T00:21:47;7.20;;;2.73;;
16689;SDS011;8458;52.220;9.884;2023-02-01T00:24:14;7.27;;;2.50;;
16689;SDS011;8458;52.220;9.884;2023-02-01T00:26:42;7.93;;;2.63;;
16689;SDS011;8458;52.220;9.884;2023-02-01T00:29:10;9.47;;;2.10;;
16689;SDS011;8458;52.220;9.884;2023-02-01T00:31:38;9.97;;;2.70;;
16689;SDS011;8458;52.220;9.884;2023-02-01T00:34:05;11.33;;;2.73;;
16689;SDS011;8458;52.220;9.884;2023-02-01T00:36:33;9.03;;;3.20;;
16689;SDS011;8458;52.220;9.884;2023-02-01T00:39:00;8.03;;;2.80;;
16689;SDS011;8458;52.220;9.884;2023-02-01T00:41:26;7.47;;;2.57;;
16689;SDS011;8458;52.220;9.884;2023-02-01T00:43:54;6.70;;;2.60;;
16689;SDS011;8458;52.220;9.884;2023-02-01T00:46:21;5.80;;;1.90;;
16689;SDS011;8458;52.220;9.884;2023-02-01T00:48:47;8.73;;;2.40;;
16689;SDS011;8458;52.220;9.884;2023-02-01T00:51:15;7.43;;;2.43;;
16689;SDS011;8458;52.220;9.884;2023-02-01T00:53:44;8.60;;;2.67;;
16689;SDS011;8458;52.220;9.884;2023-02-01T00:56:11;8.80;;;2.33;;
16689;SDS011;8458;52.220;9.884;2023-02-01T00:58:37;9.77;;;2.70;;
16689;SDS011;8458;52.220;9.884;2023-02-01T01:01:06;6.73;;;2.63;;
16689;SDS011;8458;52.220;9.884;2023-02-01T01:03:35;10.43;;;2.87;;
16689;SDS011;8458;52.220;9.884;2023-02-01T01:06:04;7.53;;;2.47;;
16689;SDS011;8458;52.220;9.884;2023-02-01T01:08:32;10.77;;;2.83;;
16689;SDS011;8458;52.220;9.884;2023-02-01T01:10:59;7.70;;;2.50;;
16689;SDS011;8458;52.220;9.884;2023-02-01T01:13:29;6.70;;;2.50;;
16689;SDS011;8458;52.220;9.884;2023-02-01T01:15:55;6.97;;;2.80;;
16689;SDS011;8458;52.220;9.884;2023-02-01T01:18:23;8.80;;;2.33;;
16689;SDS011;8458;52.220;9.884;2023-02-01T01:20:50;8.03;;;3.10;;
16689;SDS011;8458;52.220;9.884;2023-02-01T01:23:16;11.50;;;2.90;;
16689;SDS011;8458;52.220;9.884;2023-02-01T01:25:43;9.77;;;2.23;;
16689;SDS011;8458;52.220;9.884;2023-02-01T01:28:09;11.80;;;2.83;;
16689;SDS011;8458;52.220;9.884;2023-02-01T01:30:35;6.47;;;2.20;;
16689;SDS011;8458;52.220;9.884;2023-02-01T01:33:02;10.80;;;2.70;;
16689;SDS011;8458;52.220;9.884;2023-02-01T01:35:30;7.63;;;2.43;;
16689;SDS011;8458;52.220;9.884;2023-02-01T01:37:58;12.83;;;2.60;;
16689;SDS011;8458;52.220;9.884;2023-02-01T01:40:26;12.10;;;3.03;;
16689;SDS011;8458;52.220;9.884;2023-02-01T01:42:52;8.07;;;2.43;;
16689;SDS011;8458;52.220;9.884;2023-02-01T01:45:22;11.87;;;2.87;;
16689;SDS011;8458;52.220;9.884;2023-02-01T01:47:51;9.43;;;2.63;;
16689;SDS011;8458;52.220;9.884;2023-02-01T01:50:20;7.07;;;2.27;;
16689;SDS011;8458;52.220;9.884;2023-02-01T01:52:52;8.10;;;2.40;;
16689;SDS011;8458;52.220;9.884;2023-02-01T01:55:21;9.77;;;2.37;;
16689;SDS011;8458;52.220;9.884;2023-02-01T01:57:52;10.83;;;2.47;;
16689;SDS011;8458;52.220;9.884;2023-02-01T02:00:24;10.87;;;2.50;;
16689;SDS011;8458;52.220;9.884;2023-02-01T02:02:52;6.03;;;1.83;;
16689;SDS011;8458;52.220;9.884;2023-02-01T02:05:23;10.00;;;2.70;;
16689;SDS011;8458;52.220;9.884;2023-02-01T02:07:52;9.27;;;2.87;;
16689;SDS011;8458;52.220;9.884;2023-02-01T02:10:22;8.20;;;2.47;;
16689;SDS011;8458;52.220;9.884;2023-02-01T02:13:09;10.83;;;2.67;;
16689;SDS011;8458;52.220;9.884;2023-02-01T02:15:36;9.27;;;3.13;;
16689;SDS011;8458;52.220;9.884;2023-02-01T02:18:10;6.57;;;2.13;;
16689;SDS011;8458;52.220;9.884;2023-02-01T02:20:46;7.97;;;2.90;;
16689;SDS011;8458;52.220;9.884;2023-02-01T02:23:38;7.17;;;2.43;;
16689;SDS011;8458;52.220;9.884;2023-02-01T02:26:32;10.63;;;2.50;;
16689;SDS011;8458;52.220;9.884;2023-02-01T02:29:13;8.87;;;2.60;;
16689;SDS011;8458;52.220;9.884;2023-02-01T02:32:23;7.77;;;2.73;;
16689;SDS011;8458;52.220;9.884;2023-02-01T02:35:12;8.13;;;2.60;;
16689;SDS011;8458;52.220;9.884;2023-02-01T02:37:48;10.13;;;3.20;;
16689;SDS011;8458;52.220;9.884;2023-02-01T02:40:27;7.43;;;2.67;;
16689;SDS011;8458;52.220;9.884;2023-02-01T02:42:59;8.17;;;2.53;;
16689;SDS011;8458;52.220;9.884;2023-02-01T02:46:00;7.33;;;2.60;;
16689;SDS011;8458;52.220;9.884;2023-02-01T02:49:03;7.97;;;2.13;;
16689;SDS011;8458;52.220;9.884;2023-02-01T02:51:40;8.17;;;2.63;;
16689;SDS011;8458;52.220;9.884;2023-02-01T02:54:28;10.47;;;2.87;;
16689;SDS011;8458;52.220;9.884;2023-02-01T02:57:12;8.83;;;2.80;;
16689;SDS011;8458;52.220;9.884;2023-02-01T02:59:59;6.70;;;2.33;;
16689;SDS011;8458;52.220;9.884;2023-02-01T03:02:45;6.27;;;2.20;;
16689;SDS011;8458;52.220;9.884;2023-02-01T03:05:33;7.63;;;2.47;;
16689;SDS011;8458;52.220;9.884;2023-02-01T03:08:09;8.67;;;3.03;;
16689;SDS011;8458;52.220;9.884;2023-02-01T03:10:40;7.67;;;2.57;;
16689;SDS011;8458;52.220;9.884;2023-02-01T03:13:13;9.10;;;3.10;;
16689;SDS011;8458;52.220;9.884;2023-02-01T03:15:45;7.60;;;2.73;;
16689;SDS011;8458;52.220;9.884;2023-02-01T03:18:18;8.73;;;2.87;;
16689;SDS011;8458;52.220;9.884;2023-02-01T03:20:50;9.53;;;2.80;;
16689;SDS011;8458;52.220;9.884;2023-02-01T03:23:21;11.27;;;2.60;;
16689;SDS011;8458;52.220;9.884;2023-02-01T03:25:52;10.37;;;3.40;;
16689;SDS011;8458;52.220;9.884;2023-02-01T03:28:22;7.67;;;2.67;;
16689;SDS011;8458;52.220;9.884;2023-02-01T03:30:51;11.30;;;3.27;;
16689;SDS011;8458;52.220;9.884;2023-02-01T03:33:19;8.83;;;2.63;;
16689;SDS011;8458;52.220;9.884;2023-02-01T03:35:48;7.37;;;2.83;;
16689;SDS011;8458;52.220;9.884;2023-02-01T03:38:23;7.37;;;2.87;;
16689;SDS011;8458;52.220;9.884;2023-02-01T03:40:55;7.90;;;2.83;;
16689;SDS011;8458;52.220;9.884;2023-02-01T03:43:23;11.43;;;3.50;;
16689;SDS011;8458;52.220;9.884;2023-02-01T03:45:54;9.10;;;3.07;;
16689;SDS011;8458;52.220;9.884;2023-02-01T03:48:26;11.30;;;3.00;;
16689;SDS011;8458;52.220;9.884;2023-02-01T03:50:55;9.63;;;2.90;;
16689;SDS011;8458;52.220;9.884;2023-02-01T03:53:26;8.27;;;2.63;;
16689;SDS011;8458;52.220;9.884;2023-02-01T03:55:54;9.70;;;2.93;;
16689;SDS011;8458;52.220;9.884;2023-02-01T03:58:22;5.93;;;2.93;;
16689;SDS011;8458;52.220;9.884;2023-02-01T04:00:50;7.17;;;2.23;;
16689;SDS011;8458;52.220;9.884;2023-02-01T04:03:18;8.07;;;3.00;;
16689;SDS011;8458;52.220;9.884;2023-02-01T04:05:46;7.00;;;2.87;;
16689;SDS011;8458;52.220;9.884;2023-02-01T04:08:13;7.37;;;2.73;;
16689;SDS011;8458;52.220;9.884;2023-02-01T04:10:40;8.17;;;2.87;;
16689;SDS011;8458;52.220;9.884;2023-02-01T04:13:07;8.53;;;2.80;;
16689;SDS011;8458;52.220;9.884;2023-02-01T04:15:34;7.13;;;2.80;;
16689;SDS011;8458;52.220;9.884;2023-02-01T04:18:00;7.07;;;2.70;;
16689;SDS011;8458;52.220;9.884;2023-02-01T04:20:27;10.93;;;3.00;;
16689;SDS011;8458;52.220;9.884;2023-02-01T04:22:53;7.77;;;2.67;;
16689;SDS011;8458;52.220;9.884;2023-02-01T04:25:20;4.43;;;2.40;;
16689;SDS011;8458;52.220;9.884;2023-02-01T04:27:48;12.70;;;3.70;;
16689;SDS011;8458;52.220;9.884;2023-02-01T04:30:14;8.43;;;2.90;;
16689;SDS011;8458;52.220;9.884;2023-02-01T04:32:41;9.37;;;3.60;;
16689;SDS011;8458;52.220;9.884;2023-02-01T04:35:08;10.53;;;2.93;;
16689;SDS011;8458;52.220;9.884;2023-02-01T04:37:35;11.07;;;3.40;;
16689;SDS011;8458;52.220;9.884;2023-02-01T04:40:02;10.63;;;3.20;;
16689;SDS011;8458;52.220;9.884;2023-02-01T04:42:29;8.80;;;3.47;;
16689;SDS011;8458;52.220;9.884;2023-02-01T04:44:57;12.07;;;3.00;;
16689;SDS011;8458;52.220;9.884;2023-02-01T04:47:23;9.17;;;3.10;;
16689;SDS011;8458;52.220;9.884;2023-02-01T04:49:50;8.40;;;3.40;;
16689;SDS011;8458;52.220;9.884;2023-02-01T04:52:16;6.73;;;3.30;;
16689;SDS011;8458;52.220;9.884;2023-02-01T04:54:43;5.83;;;2.80;;
16689;SDS011;8458;52.220;9.884;2023-02-01T04:57:09;9.53;;;3.43;;
16689;SDS011;8458;52.220;9.884;2023-02-01T04:59:36;10.13;;;3.30;;
16689;SDS011;8458;52.220;9.884;2023-02-01T05:02:04;7.57;;;2.77;;
16689;SDS011;8458;52.220;9.884;2023-02-01T05:04:30;7.00;;;2.83;;
16689;SDS011;8458;52.220;9.884;2023-02-01T05:06:56;9.70;;;2.90;;
16689;SDS011;8458;52.220;9.884;2023-02-01T05:09:23;8.37;;;2.53;;
16689;SDS011;8458;52.220;9.884;2023-02-01T05:11:49;8.30;;;3.17;;
16689;SDS011;8458;52.220;9.884;2023-02-01T05:14:33;8.13;;;2.67;;
16689;SDS011;8458;52.220;9.884;2023-02-01T05:17:00;10.40;;;3.07;;
16689;SDS011;8458;52.220;9.884;2023-02-01T05:19:27;10.50;;;3.30;;
16689;SDS011;8458;52.220;9.884;2023-02-01T05:21:54;7.30;;;2.70;;
16689;SDS011;8458;52.220;9.884;2023-02-01T05:24:20;7.43;;;3.37;;
16689;SDS011;8458;52.220;9.884;2023-02-01T05:26:47;7.57;;;2.90;;
16689;SDS011;8458;52.220;9.884;2023-02-01T05:29:15;8.43;;;2.63;;
16689;SDS011;8458;52.220;9.884;2023-02-01T05:31:43;10.33;;;3.47;;
16689;SDS011;8458;52.220;9.884;2023-02-01T05:34:11;7.00;;;2.90;;
16689;SDS011;8458;52.220;9.884;2023-02-01T05:36:39;10.07;;;2.70;;
16689;SDS011;8458;52.220;9.884;2023-02-01T05:39:05;6.40;;;2.70;;
16689;SDS011;8458;52.220;9.884;2023-02-01T05:41:32;7.70;;;2.73;;
16689;SDS011;8458;52.220;9.884;2023-02-01T05:43:58;8.50;;;2.63;;
16689;SDS011;8458;52.220;9.884;2023-02-01T05:46:25;6.73;;;2.77;;
16689;SDS011;8458;52.220;9.884;2023-02-01T05:48:51;5.73;;;2.33;;
16689;SDS011;8458;52.220;9.884;2023-02-01T05:51:18;5.77;;;2.00;;
16689;SDS011;8458;52.220;9.884;2023-02-01T05:53:45;7.10;;;2.60;;
16689;SDS011;8458;52.220;9.884;2023-02-01T05:56:12;5.40;;;2.23;;
16689;SDS011;8458;52.220;9.884;2023-02-01T05:58:38;4.93;;;2.43;;
16689;SDS011;8458;52.220;9.884;2023-02-01T06:01:05;5.57;;;2.40;;
16689;SDS011;8458;52.220;9.884;2023-02-01T06:03:31;5.07;;;2.20;;
16689;SDS011;8458;52.220;9.884;2023-02-01T06:05:58;6.23;;;2.70;;
16689;SDS011;8458;52.220;9.884;2023-02-01T06:08:25;6.73;;;2.13;;
16689;SDS011;8458;52.220;9.884;2023-02-01T06:10:58;10.80;;;2.73;;
16689;SDS011;8458;52.220;9.884;2023-02-01T06:13:25;5.17;;;2.70;;
16689;SDS011;8458;52.220;9.884;2023-02-01T06:15:51;5.47;;;2.03;;
16689;SDS011;8458;52.220;9.884;2023-02-01T06:18:17;8.23;;;2.10;;
16689;SDS011;8458;52.220;9.884;2023-02-01T06:20:44;7.23;;;2.17;;
16689;SDS011;8458;52.220;9.884;2023-02-01T06:23:10;5.33;;;2.20;;
16689;SDS011;8458;52.220;9.884;2023-02-01T06:25:37;3.93;;;1.70;;
16689;SDS011;8458;52.220;9.884;2023-02-01T06:28:05;5.33;;;2.17;;
16689;SDS011;8458;52.220;9.884;2023-02-01T06:30:33;5.10;;;1.80;;
16689;SDS011;8458;52.220;9.884;2023-02-01T06:32:59;6.73;;;2.00;;
16689;SDS011;8458;52.220;9.884;2023-02-01T06:35:26;7.40;;;2.00;;
16689;SDS011;8458;52.220;9.884;2023-02-01T06:37:53;6.53;;;2.03;;
16689;SDS011;8458;52.220;9.884;2023-02-01T06:40:19;4.37;;;2.10;;
16689;SDS011;8458;52.220;9.884;2023-02-01T06:42:47;4.73;;;2.10;;
16689;SDS011;8458;52.220;9.884;2023-02-01T06:45:15;4.87;;;1.73;;
16689;SDS011;8458;52.220;9.884;2023-02-01T06:47:42;4.40;;;2.00;;
16689;SDS011;8458;52.220;9.884;2023-02-01T06:50:09;5.13;;;1.90;;
16689;SDS011;8458;52.220;9.884;2023-02-01T06:52:36;3.40;;;1.60;;
16689;SDS011;8458;52.220;9.884;2023-02-01T06:55:02;4.70;;;1.90;;
16689;SDS011;8458;52.220;9.884;2023-02-01T06:57:29;6.27;;;1.87;;
16689;SDS011;8458;52.220;9.884;2023-02-01T06:59:58;5.33;;;1.83;;
16689;SDS011;8458;52.220;9.884;2023-02-01T07:02:25;4.30;;;1.93;;
16689;SDS011;8458;52.220;9.884;2023-02-01T07:04:52;4.70;;;1.60;;
16689;SDS011;8458;52.220;9.884;2023-02-01T07:07:18;4.70;;;1.90;;
16689;SDS011;8458;52.220;9.884;2023-02-01T07:09:47;5.83;;;2.30;;
16689;SDS011;8458;52.220;9.884;2023-02-01T07:12:14;6.67;;;2.57;;
16689;SDS011;8458;52.220;9.884;2023-02-01T07:14:40;6.60;;;2.10;;
16689;SDS011;8458;52.220;9.884;2023-02-01T07:17:07;5.37;;;2.13;;
16689;SDS011;8458;52.220;9.884;2023-02-01T07:19:34;6.40;;;2.00;;
16689;SDS011;8458;52.220;9.884;2023-02-01T07:22:01;4.80;;;2.40;;
16689;SDS011;8458;52.220;9.884;2023-02-01T07:24:28;6.00;;;2.43;;
16689;SDS011;8458;52.220;9.884;2023-02-01T07:26:55;8.13;;;2.77;;
16689;SDS011;8458;52.220;9.884;2023-02-01T07:29:22;6.07;;;2.07;;
16689;SDS011;8458;52.220;9.884;2023-02-01T07:31:48;4.20;;;1.80;;
16689;SDS011;8458;52.220;9.884;2023-02-01T07:34:14;5.70;;;2.00;;
16689;SDS011;8458;52.220;9.884;2023-02-01T07:36:42;6.20;;;2.37;;
16689;SDS011;8458;52.220;9.884;2023-02-01T07:39:09;9.03;;;2.27;;
16689;SDS011;8458;52.220;9.884;2023-02-01T07:41:35;6.57;;;2.40;;
16689;SDS011;8458;52.220;9.884;2023-02-01T07:44:02;8.10;;;2.30;;
16689;SDS011;8458;52.220;9.884;2023-02-01T07:46:28;5.33;;;2.00;;
16689;SDS011;8458;52.220;9.884;2023-02-01T07:48:55;7.87;;;2.60;;
16689;SDS011;8458;52.220;9.884;2023-02-01T07:51:21;5.83;;;2.10;;
16689;SDS011;8458;52.220;9.884;2023-02-01T07:53:49;6.17;;;2.37;;
16689;SDS011;8458;52.220;9.884;2023-02-01T07:56:16;8.27;;;2.63;;
16689;SDS011;8458;52.220;9.884;2023-02-01T07:58:46;9.93;;;3.13;;
16689;SDS011;8458;52.220;9.884;2023-02-01T08:01:14;6.07;;;2.13;;
16689;SDS011;8458;52.220;9.884;2023-02-01T08:03:46;7.13;;;2.50;;
16689;SDS011;8458;52.220;9.884;2023-02-01T08:06:13;6.63;;;2.00;;
16689;SDS011;8458;52.220;9.884;2023-02-01T08:08:40;5.40;;;2.43;;
16689;SDS011;8458;52.220;9.884;2023-02-01T08:11:08;8.07;;;2.43;;
16689;SDS011;8458;52.220;9.884;2023-02-01T08:13:35;7.90;;;2.70;;
16689;SDS011;8458;52.220;9.884;2023-02-01T08:16:02;7.23;;;1.93;;
16689;SDS011;8458;52.220;9.884;2023-02-01T08:18:30;6.50;;;2.40;;
16689;SDS011;8458;52.220;9.884;2023-02-01T08:21:01;11.83;;;2.50;;
16689;SDS011;8458;52.220;9.884;2023-02-01T08:23:29;6.93;;;2.40;;
16689;SDS011;8458;52.220;9.884;2023-02-01T08:26:03;8.13;;;2.07;;
16689;SDS011;8458;52.220;9.884;2023-02-01T08:28:32;6.93;;;1.70;;
16689;SDS011;8458;52.220;9.884;2023-02-01T08:30:58;7.03;;;2.00;;
16689;SDS011;8458;52.220;9.884;2023-02-01T08:33:25;6.47;;;2.27;;
16689;SDS011;8458;52.220;9.884;2023-02-01T08:35:51;5.60;;;1.90;;
16689;SDS011;8458;52.220;9.884;2023-02-01T08:38:18;4.87;;;1.73;;
16689;SDS011;8458;52.220;9.884;2023-02-01T08:40:44;7.07;;;2.07;;
16689;SDS011;8458;52.220;9.884;2023-02-01T08:43:11;4.50;;;2.00;;
16689;SDS011;8458;52.220;9.884;2023-02-01T08:45:39;11.57;;;2.70;;
16689;SDS011;8458;52.220;9.884;2023-02-01T08:48:06;5.03;;;1.90;;
16689;SDS011;8458;52.220;9.884;2023-02-01T08:50:32;7.53;;;2.10;;
16689;SDS011;8458;52.220;9.884;2023-02-01T08:52:59;9.37;;;2.43;;
16689;SDS011;8458;52.220;9.884;2023-02-01T08:55:25;6.10;;;1.60;;
16689;SDS011;8458;52.220;9.884;2023-02-01T08:57:52;4.13;;;2.00;;
16689;SDS011;8458;52.220;9.884;2023-02-01T09:00:19;5.67;;;1.67;;
16689;SDS011;8458;52.220;9.884;2023-02-01T09:02:47;4.17;;;1.63;;
16689;SDS011;8458;52.220;9.884;2023-02-01T09:05:13;4.97;;;1.73;;
16689;SDS011;8458;52.220;9.884;2023-02-01T09:07:41;6.70;;;2.10;;
16689;SDS011;8458;52.220;9.884;2023-02-01T09:10:08;6.93;;;2.00;;
16689;SDS011;8458;52.220;9.884;2023-02-01T09:12:35;6.47;;;1.77;;
16689;SDS011;8458;52.220;9.884;2023-02-01T09:15:03;6.80;;;2.20;;
16689;SDS011;8458;52.220;9.884;2023-02-01T09:17:32;7.60;;;2.07;;
16689;SDS011;8458;52.220;9.884;2023-02-01T09:20:00;7.20;;;2.23;;
16689;SDS011;8458;52.220;9.884;2023-02-01T09:22:27;5.33;;;2.17;;
16689;SDS011;8458;52.220;9.884;2023-02-01T09:24:53;5.20;;;1.77;;
16689;SDS011;8458;52.220;9.884;2023-02-01T09:27:20;5.33;;;2.10;;
16689;SDS011;8458;52.220;9.884;2023-02-01T09:29:47;4.60;;;1.93;;
16689;SDS011;8458;52.220;9.884;2023-02-01T09:32:17;4.67;;;1.93;;
16689;SDS011;8458;52.220;9.884;2023-02-01T09:34:43;4.60;;;2.20;;
16689;SDS011;8458;52.220;9.884;2023-02-01T09:37:11;5.47;;;1.80;;
16689;SDS011;8458;52.220;9.884;2023-02-01T09:39:38;4.40;;;1.70;;
16689;SDS011;8458;52.220;9.884;2023-02-01T09:42:07;6.57;;;2.07;;
16689;SDS011;8458;52.220;9.884;2023-02-01T09:44:48;8.53;;;2.10;;
16689;SDS011;8458;52.220;9.884;2023-02-01T09:47:27;7.07;;;2.10;;
16689;SDS011;8458;52.220;9.884;2023-02-01T09:49:56;4.47;;;1.97;;
16689;SDS011;8458;52.220;9.884;2023-02-01T09:52:30;5.40;;;2.00;;
16689;SDS011;8458;52.220;9.884;2023-02-01T09:55:04;6.00;;;2.30;;
16689;SDS011;8458;52.220;9.884;2023-02-01T09:57:40;4.33;;;2.00;;
16689;SDS011;8458;52.220;9.884;2023-02-01T10:00:15;8.47;;;2.07;;
16689;SDS011;8458;52.220;9.884;2023-02-01T10:02:46;3.37;;;1.63;;
16689;SDS011;8458;52.220;9.884;2023-02-01T10:05:14;5.77;;;2.13;;
16689;SDS011;8458;52.220;9.884;2023-02-01T10:07:46;12.30;;;2.43;;
16689;SDS011;8458;52.220;9.884;2023-02-01T10:10:20;4.73;;;2.00;;
16689;SDS011;8458;52.220;9.884;2023-02-01T10:13:01;5.53;;;2.07;;
16689;SDS011;8458;52.220;9.884;2023-02-01T10:15:52;6.57;;;2.67;;
16689;SDS011;8458;52.220;9.884;2023-02-01T10:18:37;5.80;;;1.93;;
16689;SDS011;8458;52.220;9.884;2023-02-01T10:21:19;7.37;;;2.20;;
16689;SDS011;8458;52.220;9.884;2023-02-01T10:26:59;8.90;;;2.30;;
16689;SDS011;8458;52.220;9.884;2023-02-01T10:29:31;5.93;;;2.10;;
16689;SDS011;8458;52.220;9.884;2023-02-01T10:32:02;5.83;;;1.87;;
16689;SDS011;8458;52.220;9.884;2023-02-01T10:34:36;8.10;;;2.30;;
16689;SDS011;8458;52.220;9.884;2023-02-01T10:37:08;5.43;;;1.93;;
16689;SDS011;8458;52.220;9.884;2023-02-01T10:39:45;8.17;;;2.30;;
16689;SDS011;8458;52.220;9.884;2023-02-01T10:42:13;7.27;;;1.90;;
16689;SDS011;8458;52.220;9.884;2023-02-01T10:44:42;6.70;;;2.33;;
16689;SDS011;8458;52.220;9.884;2023-02-01T10:47:13;4.40;;;2.10;;
16689;SDS011;8458;52.220;9.884;2023-02-01T10:49:40;5.20;;;1.90;;
16689;SDS011;8458;52.220;9.884;2023-02-01T10:52:14;6.27;;;1.77;;
16689;SDS011;8458;52.220;9.884;2023-02-01T10:54:43;3.43;;;1.50;;
16689;SDS011;8458;52.220;9.884;2023-02-01T10:57:19;5.20;;;2.00;;
16689;SDS011;8458;52.220;9.884;2023-02-01T10:59:48;10.27;;;2.47;;
16689;SDS011;8458;52.220;9.884;2023-02-01T11:02:16;6.33;;;2.20;;
16689;SDS011;8458;52.220;9.884;2023-02-01T11:04:51;4.40;;;1.70;;
16689;SDS011;8458;52.220;9.884;2023-02-01T11:07:25;4.63;;;1.97;;
16689;SDS011;8458;52.220;9.884;2023-02-01T11:09:53;6.50;;;2.10;;
16689;SDS011;8458;52.220;9.884;2023-02-01T11:12:30;4.70;;;1.90;;
16689;SDS011;8458;52.220;9.884;2023-02-01T11:14:59;6.07;;;2.20;;
16689;SDS011;8458;52.220;9.884;2023-02-01T11:17:32;4.63;;;2.17;;
16689;SDS011;8458;52.220;9.884;2023-02-01T11:20:03;6.13;;;2.90;;
16689;SDS011;8458;52.220;9.884;2023-02-01T11:22:32;5.43;;;1.53;;
16689;SDS011;8458;52.220;9.884;2023-02-01T11:24:59;5.77;;;1.80;;
16689;SDS011;8458;52.220;9.884;2023-02-01T11:27:34;4.93;;;2.10;;
16689;SDS011;8458;52.220;9.884;2023-02-01T11:30:01;5.60;;;1.50;;
16689;SDS011;8458;52.220;9.884;2023-02-01T11:32:29;6.67;;;2.20;;
16689;SDS011;8458;52.220;9.884;2023-02-01T11:34:57;4.87;;;1.67;;
16689;SDS011;8458;52.220;9.884;2023-02-01T11:37:27;4.53;;;1.70;;
16689;SDS011;8458;52.220;9.884;2023-02-01T11:39:57;4.63;;;1.33;;
16689;SDS011;8458;52.220;9.884;2023-02-01T11:42:25;7.50;;;2.20;;
16689;SDS011;8458;52.220;9.884;2023-02-01T11:45:15;6.73;;;1.93;;
16689;SDS011;8458;52.220;9.884;2023-02-01T11:47:44;6.53;;;2.20;;
16689;SDS011;8458;52.220;9.884;2023-02-01T11:50:13;6.70;;;2.03;;
16689;SDS011;8458;52.220;9.884;2023-02-01T11:52:50;7.17;;;1.97;;
16689;SDS011;8458;52.220;9.884;2023-02-01T11:55:33;6.10;;;1.80;;
16689;SDS011;8458;52.220;9.884;2023-02-01T11:58:12;9.37;;;2.80;;
16689;SDS011;8458;52.220;9.884;2023-02-01T12:00:59;6.17;;;2.43;;
16689;SDS011;8458;52.220;9.884;2023-02-01T12:03:39;6.33;;;2.40;;
16689;SDS011;8458;52.220;9.884;2023-02-01T12:06:25;6.13;;;2.13;;
16689;SDS011;8458;52.220;9.884;2023-02-01T12:09:06;6.63;;;1.90;;
16689;SDS011;8458;52.220;9.884;2023-02-01T12:11:48;5.57;;;2.00;;
16689;SDS011;8458;52.220;9.884;2023-02-01T12:14:28;8.27;;;1.90;;
16689;SDS011;8458;52.220;9.884;2023-02-01T12:17:15;8.73;;;2.10;;
16689;SDS011;8458;52.220;9.884;2023-02-01T12:20:01;5.53;;;1.80;;
16689;SDS011;8458;52.220;9.884;2023-02-01T12:22:39;7.17;;;2.13;;
16689;SDS011;8458;52.220;9.884;2023-02-01T12:25:21;6.20;;;2.43;;
16689;SDS011;8458;52.220;9.884;2023-02-01T12:31:15;8.97;;;2.23;;
16689;SDS011;8458;52.220;9.884;2023-02-01T12:33:55;6.40;;;2.20;;
16689;SDS011;8458;52.220;9.884;2023-02-01T12:36:31;6.23;;;2.40;;
16689;SDS011;8458;52.220;9.884;2023-02-01T12:39:04;7.60;;;1.93;;
16689;SDS011;8458;52.220;9.884;2023-02-01T12:41:41;6.60;;;2.00;;
16689;SDS011;8458;52.220;9.884;2023-02-01T12:44:18;7.00;;;2.00;;
16689;SDS011;8458;52.220;9.884;2023-02-01T12:46:53;5.50;;;1.97;;
16689;SDS011;8458;52.220;9.884;2023-02-01T12:49:27;5.73;;;2.33;;
16689;SDS011;8458;52.220;9.884;2023-02-01T12:52:00;5.50;;;1.77;;
16689;SDS011;8458;52.220;9.884;2023-02-01T12:54:32;9.57;;;2.13;;
16689;SDS011;8458;52.220;9.884;2023-02-01T12:57:04;6.63;;;2.17;;
16689;SDS011;8458;52.220;9.884;2023-02-01T12:59:37;5.07;;;1.90;;
16689;SDS011;8458;52.220;9.884;2023-02-01T13:02:11;3.60;;;1.60;;
16689;SDS011;8458;52.220;9.884;2023-02-01T13:04:44;5.07;;;1.80;;
16689;SDS011;8458;52.220;9.884;2023-02-01T13:07:20;3.70;;;2.30;;
16689;SDS011;8458;52.220;9.884;2023-02-01T13:09:51;5.20;;;1.80;;
16689;SDS011;8458;52.220;9.884;2023-02-01T13:12:34;4.53;;;1.90;;
16689;SDS011;8458;52.220;9.884;2023-02-01T13:15:04;4.47;;;1.33;;
16689;SDS011;8458;52.220;9.884;2023-02-01T13:17:39;4.63;;;1.70;;
16689;SDS011;8458;52.220;9.884;2023-02-01T13:20:13;5.17;;;2.00;;
16689;SDS011;8458;52.220;9.884;2023-02-01T13:22:45;3.13;;;1.63;;
16689;SDS011;8458;52.220;9.884;2023-02-01T13:25:15;4.43;;;1.50;;
16689;SDS011;8458;52.220;9.884;2023-02-01T13:27:52;3.30;;;1.30;;
16689;SDS011;8458;52.220;9.884;2023-02-01T13:30:21;4.23;;;2.20;;
16689;SDS011;8458;52.220;9.884;2023-02-01T13:32:55;6.17;;;2.10;;
16689;SDS011;8458;52.220;9.884;2023-02-01T13:35:45;2.50;;;1.50;;
16689;SDS011;8458;52.220;9.884;2023-02-01T13:41:37;3.47;;;1.20;;
16689;SDS011;8458;52.220;9.884;2023-02-01T13:44:24;3.07;;;1.40;;
16689;SDS011;8458;52.220;9.884;2023-02-01T13:46:56;3.57;;;1.33;;
16689;SDS011;8458;52.220;9.884;2023-02-01T13:49:25;2.63;;;1.17;;
16689;SDS011;8458;52.220;9.884;2023-02-01T13:51:55;2.83;;;1.60;;
16689;SDS011;8458;52.220;9.884;2023-02-01T13:54:28;1.97;;;0.90;;
16689;SDS011;8458;52.220;9.884;2023-02-01T13:56:56;1.40;;;0.63;;
16689;SDS011;8458;52.220;9.884;2023-02-01T13:59:48;1.77;;;0.50;;
16689;SDS011;8458;52.220;9.884;2023-02-01T14:08:38;0.70;;;0.30;;
16689;SDS011;8458;52.220;9.884;2023-02-01T14:11:33;0.57;;;0.20;;
16689;SDS011;8458;52.220;9.884;2023-02-01T14:23:21;0.97;;;0.50;;
16689;SDS011;8458;52.220;9.884;2023-02-01T14:28:57;0.80;;;0.40;;
16689;SDS011;8458;52.220;9.884;2023-02-01T14:31:31;0.80;;;0.50;;
16689;SDS011;8458;52.220;9.884;2023-02-01T14:34:11;0.50;;;0.40;;
16689;SDS011;8458;52.220;9.884;2023-02-01T14:36:42;0.30;;;0.30;;
16689;SDS011;8458;52.220;9.884;2023-02-01T14:39:18;0.77;;;0.40;;
16689;SDS011;8458;52.220;9.884;2023-02-01T14:41:54;0.30;;;0.30;;
16689;SDS011;8458;52.220;9.884;2023-02-01T14:57:54;1.80;;;0.70;;
16689;SDS011;8458;52.220;9.884;2023-02-01T15:00:25;1.50;;;0.50;;
16689;SDS011;8458;52.220;9.884;2023-02-01T15:02:54;0.73;;;0.40;;
16689;SDS011;8458;52.220;9.884;2023-02-01T15:05:37;2.47;;;0.30;;
16689;SDS011;8458;52.220;9.884;2023-02-01T15:08:05;2.60;;;0.50;;
16689;SDS011;8458;52.220;9.884;2023-02-01T15:10:40;0.93;;;0.40;;
16689;SDS011;8458;52.220;9.884;2023-02-01T15:13:19;1.93;;;0.53;;
16689;SDS011;8458;52.220;9.884;2023-02-01T15:15:59;0.93;;;0.60;;
16689;SDS011;8458;52.220;9.884;2023-02-01T15:18:30;1.60;;;0.67;;
16689;SDS011;8458;52.220;9.884;2023-02-01T15:20:57;1.40;;;0.50;;
16689;SDS011;8458;52.220;9.884;2023-02-01T15:23:25;1.07;;;0.50;;
16689;SDS011;8458;52.220;9.884;2023-02-01T15:25:52;1.90;;;0.63;;
16689;SDS011;8458;52.220;9.884;2023-02-01T15:28:21;0.87;;;0.50;;
16689;SDS011;8458;52.220;9.884;2023-02-01T15:30:52;1.10;;;0.43;;
16689;SDS011;8458;52.220;9.884;2023-02-01T15:33:21;2.17;;;0.60;;
16689;SDS011;8458;52.220;9.884;2023-02-01T15:35:49;2.13;;;0.77;;
16689;SDS011;8458;52.220;9.884;2023-02-01T15:38:18;3.30;;;0.77;;
16689;SDS011;8458;52.220;9.884;2023-02-01T15:41:01;0.83;;;0.77;;
16689;SDS011;8458;52.220;9.884;2023-02-01T15:43:31;2.27;;;0.83;;
16689;SDS011;8458;52.220;9.884;2023-02-01T15:46:00;1.87;;;0.80;;
16689;SDS011;8458;52.220;9.884;2023-02-01T15:48:31;2.17;;;0.80;;
16689;SDS011;8458;52.220;9.884;2023-02-01T15:51:01;2.17;;;1.20;;
16689;SDS011;8458;52.220;9.884;2023-02-01T15:53:28;1.93;;;0.90;;
16689;SDS011;8458;52.220;9.884;2023-02-01T15:55:57;2.30;;;1.00;;
16689;SDS011;8458;52.220;9.884;2023-02-01T15:58:26;1.43;;;1.07;;
16689;SDS011;8458;52.220;9.884;2023-02-01T16:00:55;2.63;;;1.10;;
16689;SDS011;8458;52.220;9.884;2023-02-01T16:03:28;1.73;;;0.90;;
16689;SDS011;8458;52.220;9.884;2023-02-01T16:06:01;2.80;;;1.00;;